sensor_id;sensor_type;location;lat;lon;timestamp;pressure;altitude;pressure_sealevel;temperature;humidity
46955;BME280;32708;51.212;6.788;2022-07-23T00:01:24;101214.59;;;17.06;100.00
46955;BME280;32708;51.212;6.788;2022-07-23T00:03:50;101226.19;;;17.12;100.00
46955;BME280;32708;51.212;6.788;2022-07-23T00:06:17;101210.97;;;17.18;100.00
46955;BME280;32708;51.212;6.788;2022-07-23T00:08:44;101229.38;;;17.14;100.00
46955;BME280;32708;51.212;6.788;2022-07-23T00:11:10;101233.16;;;17.22;100.00
46955;BME280;32708;51.212;6.788;2022-07-23T00:13:36;101229.84;;;17.16;100.00
46955;BME280;32708;51.212;6.788;2022-07-23T00:16:03;101244.09;;;17.18;100.00
46955;BME280;32708;51.212;6.788;2022-07-23T00:18:29;101245.53;;;17.00;100.00
46955;BME280;32708;51.212;6.788;2022-07-23T00:20:56;101238.38;;;17.11;100.00
46955;BME280;32708;51.212;6.788;2022-07-23T00:23:23;101219.31;;;17.06;100.00
46955;BME280;32708;51.212;6.788;2022-07-23T00:25:51;101228.97;;;17.00;100.00
46955;BME280;32708;51.212;6.788;2022-07-23T00:28:18;101226.97;;;17.13;100.00
46955;BME280;32708;51.212;6.788;2022-07-23T00:30:44;101221.09;;;17.14;100.00
46955;BME280;32708;51.212;6.788;2022-07-23T00:33:11;101216.00;;;17.00;100.00
46955;BME280;32708;51.212;6.788;2022-07-23T00:35:40;101212.50;;;16.88;100.00
46955;BME280;32708;51.212;6.788;2022-07-23T00:38:09;101224.72;;;17.02;100.00
46955;BME280;32708;51.212;6.788;2022-07-23T00:40:37;101214.91;;;17.17;100.00
46955;BME280;32708;51.212;6.788;2022-07-23T00:43:04;101224.63;;;17.27;100.00
46955;BME280;32708;51.212;6.788;2022-07-23T00:45:31;101216.38;;;17.43;100.00
46955;BME280;32708;51.212;6.788;2022-07-23T00:47:58;101209.78;;;17.63;100.00
46955;BME280;32708;51.212;6.788;2022-07-23T00:50:25;101209.09;;;17.66;100.00
46955;BME280;32708;51.212;6.788;2022-07-23T00:52:53;101206.56;;;17.73;100.00
46955;BME280;32708;51.212;6.788;2022-07-23T00:55:19;101217.03;;;17.68;100.00
46955;BME280;32708;51.212;6.788;2022-07-23T00:57:47;101219.84;;;17.55;100.00
46955;BME280;32708;51.212;6.788;2022-07-23T01:00:15;101225.13;;;17.60;100.00
46955;BME280;32708;51.212;6.788;2022-07-23T01:02:42;101221.88;;;17.86;100.00
46955;BME280;32708;51.212;6.788;2022-07-23T01:05:09;101219.38;;;17.97;100.00
46955;BME280;32708;51.212;6.788;2022-07-23T01:07:36;101222.59;;;18.15;100.00
46955;BME280;32708;51.212;6.788;2022-07-23T01:10:04;101218.66;;;18.16;100.00
46955;BME280;32708;51.212;6.788;2022-07-23T01:12:30;101225.84;;;18.21;100.00
46955;BME280;32708;51.212;6.788;2022-07-23T01:14:59;101223.25;;;18.28;100.00
46955;BME280;32708;51.212;6.788;2022-07-23T01:17:27;101221.47;;;18.20;100.00
46955;BME280;32708;51.212;6.788;2022-07-23T01:19:53;101227.97;;;18.27;100.00
46955;BME280;32708;51.212;6.788;2022-07-23T01:22:21;101222.88;;;18.45;100.00
46955;BME280;32708;51.212;6.788;2022-07-23T01:24:47;101219.44;;;18.67;100.00
46955;BME280;32708;51.212;6.788;2022-07-23T01:27:15;101223.41;;;18.51;100.00
46955;BME280;32708;51.212;6.788;2022-07-23T01:29:43;101229.28;;;18.49;100.00
46955;BME280;32708;51.212;6.788;2022-07-23T01:32:14;101229.38;;;18.53;100.00
46955;BME280;32708;51.212;6.788;2022-07-23T01:34:41;101225.44;;;18.54;100.00
46955;BME280;32708;51.212;6.788;2022-07-23T01:37:07;101226.66;;;18.56;100.00
46955;BME280;32708;51.212;6.788;2022-07-23T01:39:33;101216.25;;;18.50;100.00
46955;BME280;32708;51.212;6.788;2022-07-23T01:41:59;101212.84;;;18.56;100.00
46955;BME280;32708;51.212;6.788;2022-07-23T01:44:26;101196.56;;;18.51;100.00
46955;BME280;32708;51.212;6.788;2022-07-23T01:46:52;101199.31;;;18.51;100.00
46955;BME280;32708;51.212;6.788;2022-07-23T01:49:20;101194.75;;;18.43;100.00
46955;BME280;32708;51.212;6.788;2022-07-23T01:52:22;101196.97;;;18.53;100.00
46955;BME280;32708;51.212;6.788;2022-07-23T01:54:50;101196.53;;;18.67;100.00
46955;BME280;32708;51.212;6.788;2022-07-23T01:57:16;101195.59;;;18.63;100.00
46955;BME280;32708;51.212;6.788;2022-07-23T01:59:43;101199.34;;;18.70;100.00
46955;BME280;32708;51.212;6.788;2022-07-23T02:02:09;101201.13;;;18.63;100.00
46955;BME280;32708;51.212;6.788;2022-07-23T02:04:37;101198.47;;;18.66;100.00
46955;BME280;32708;51.212;6.788;2022-07-23T02:07:05;101193.94;;;18.58;100.00
46955;BME280;32708;51.212;6.788;2022-07-23T02:09:31;101203.44;;;18.41;100.00
46955;BME280;32708;51.212;6.788;2022-07-23T02:11:58;101197.25;;;18.48;100.00
46955;BME280;32708;51.212;6.788;2022-07-23T02:14:25;101200.69;;;18.61;100.00
46955;BME280;32708;51.212;6.788;2022-07-23T02:16:52;101193.03;;;18.54;100.00
46955;BME280;32708;51.212;6.788;2022-07-23T02:19:18;101200.75;;;18.45;100.00
46955;BME280;32708;51.212;6.788;2022-07-23T02:21:44;101198.34;;;18.43;100.00
46955;BME280;32708;51.212;6.788;2022-07-23T02:24:10;101194.59;;;18.52;100.00
46955;BME280;32708;51.212;6.788;2022-07-23T02:26:37;101193.41;;;18.53;100.00
46955;BME280;32708;51.212;6.788;2022-07-23T02:29:05;101192.16;;;18.66;100.00
46955;BME280;32708;51.212;6.788;2022-07-23T02:31:33;101189.06;;;18.52;100.00
46955;BME280;32708;51.212;6.788;2022-07-23T02:34:00;101195.44;;;18.56;100.00
46955;BME280;32708;51.212;6.788;2022-07-23T02:36:27;101197.03;;;18.57;100.00
46955;BME280;32708;51.212;6.788;2022-07-23T02:38:53;101194.91;;;18.50;100.00
46955;BME280;32708;51.212;6.788;2022-07-23T02:41:19;101198.16;;;18.17;100.00
46955;BME280;32708;51.212;6.788;2022-07-23T02:43:46;101190.25;;;18.35;100.00
46955;BME280;32708;51.212;6.788;2022-07-23T02:46:13;101200.03;;;18.48;100.00
46955;BME280;32708;51.212;6.788;2022-07-23T02:48:39;101196.69;;;18.58;100.00
46955;BME280;32708;51.212;6.788;2022-07-23T02:51:06;101193.53;;;18.40;100.00
46955;BME280;32708;51.212;6.788;2022-07-23T02:53:37;101199.66;;;18.50;100.00
46955;BME280;32708;51.212;6.788;2022-07-23T02:56:04;101193.47;;;18.37;100.00
46955;BME280;32708;51.212;6.788;2022-07-23T02:58:30;101203.00;;;18.39;100.00
46955;BME280;32708;51.212;6.788;2022-07-23T03:00:56;101202.16;;;18.04;100.00
46955;BME280;32708;51.212;6.788;2022-07-23T03:03:25;101195.75;;;17.84;100.00
46955;BME280;32708;51.212;6.788;2022-07-23T03:05:51;101196.16;;;17.70;100.00
46955;BME280;32708;51.212;6.788;2022-07-23T03:08:17;101199.66;;;17.99;100.00
46955;BME280;32708;51.212;6.788;2022-07-23T03:10:48;101186.81;;;18.06;100.00
46955;BME280;32708;51.212;6.788;2022-07-23T03:13:15;101192.53;;;17.98;100.00
46955;BME280;32708;51.212;6.788;2022-07-23T03:15:41;101199.31;;;17.84;100.00
46955;BME280;32708;51.212;6.788;2022-07-23T03:18:07;101196.22;;;18.02;100.00
46955;BME280;32708;51.212;6.788;2022-07-23T03:20:33;101199.16;;;17.93;100.00
46955;BME280;32708;51.212;6.788;2022-07-23T03:22:59;101206.91;;;17.87;100.00
46955;BME280;32708;51.212;6.788;2022-07-23T03:25:27;101205.03;;;17.76;100.00
46955;BME280;32708;51.212;6.788;2022-07-23T03:27:53;101208.63;;;17.64;100.00
46955;BME280;32708;51.212;6.788;2022-07-23T03:30:19;101207.59;;;17.69;100.00
46955;BME280;32708;51.212;6.788;2022-07-23T03:32:46;101208.47;;;17.57;100.00
46955;BME280;32708;51.212;6.788;2022-07-23T03:35:12;101200.91;;;17.85;100.00
46955;BME280;32708;51.212;6.788;2022-07-23T03:37:46;101209.66;;;17.87;100.00
46955;BME280;32708;51.212;6.788;2022-07-23T03:40:12;101210.19;;;17.77;100.00
46955;BME280;32708;51.212;6.788;2022-07-23T03:42:38;101204.16;;;17.87;100.00
46955;BME280;32708;51.212;6.788;2022-07-23T03:45:07;101201.06;;;17.61;100.00
46955;BME280;32708;51.212;6.788;2022-07-23T03:47:33;101206.78;;;17.52;100.00
46955;BME280;32708;51.212;6.788;2022-07-23T03:50:00;101199.09;;;17.46;100.00
46955;BME280;32708;51.212;6.788;2022-07-23T03:52:26;101206.84;;;17.56;100.00
46955;BME280;32708;51.212;6.788;2022-07-23T03:54:52;101203.28;;;17.55;100.00
46955;BME280;32708;51.212;6.788;2022-07-23T03:57:18;101201.00;;;17.57;100.00
46955;BME280;32708;51.212;6.788;2022-07-23T03:59:44;101201.03;;;17.73;100.00
46955;BME280;32708;51.212;6.788;2022-07-23T04:02:11;101197.78;;;17.55;100.00
46955;BME280;32708;51.212;6.788;2022-07-23T04:04:38;101202.59;;;17.58;100.00
46955;BME280;32708;51.212;6.788;2022-07-23T04:07:05;101198.91;;;17.39;100.00
46955;BME280;32708;51.212;6.788;2022-07-23T04:09:33;101207.16;;;17.67;100.00
46955;BME280;32708;51.212;6.788;2022-07-23T04:12:00;101200.56;;;17.71;100.00
46955;BME280;32708;51.212;6.788;2022-07-23T04:14:27;101224.47;;;17.95;100.00
46955;BME280;32708;51.212;6.788;2022-07-23T04:16:53;101222.69;;;18.03;100.00
46955;BME280;32708;51.212;6.788;2022-07-23T04:19:20;101211.44;;;17.96;100.00
46955;BME280;32708;51.212;6.788;2022-07-23T04:21:55;101210.63;;;18.11;100.00
46955;BME280;32708;51.212;6.788;2022-07-23T04:24:21;101210.66;;;17.95;100.00
46955;BME280;32708;51.212;6.788;2022-07-23T04:26:48;101208.34;;;17.81;100.00
46955;BME280;32708;51.212;6.788;2022-07-23T04:29:14;101206.13;;;17.87;100.00
46955;BME280;32708;51.212;6.788;2022-07-23T04:31:40;101208.13;;;18.06;100.00
46955;BME280;32708;51.212;6.788;2022-07-23T04:34:06;101220.06;;;18.26;100.00
46955;BME280;32708;51.212;6.788;2022-07-23T04:36:33;101213.56;;;18.53;100.00
46955;BME280;32708;51.212;6.788;2022-07-23T04:39:00;101215.09;;;18.51;100.00
46955;BME280;32708;51.212;6.788;2022-07-23T04:41:26;101224.75;;;18.76;100.00
46955;BME280;32708;51.212;6.788;2022-07-23T04:43:52;101228.84;;;18.82;100.00
46955;BME280;32708;51.212;6.788;2022-07-23T04:46:19;101235.09;;;18.98;100.00
46955;BME280;32708;51.212;6.788;2022-07-23T04:48:48;101235.19;;;19.02;100.00
46955;BME280;32708;51.212;6.788;2022-07-23T04:51:15;101235.72;;;19.08;100.00
46955;BME280;32708;51.212;6.788;2022-07-23T04:53:41;101246.94;;;19.15;100.00
46955;BME280;32708;51.212;6.788;2022-07-23T04:56:07;101239.09;;;19.40;100.00
46955;BME280;32708;51.212;6.788;2022-07-23T04:58:33;101245.19;;;19.68;100.00
46955;BME280;32708;51.212;6.788;2022-07-23T05:01:00;101246.59;;;20.04;100.00
46955;BME280;32708;51.212;6.788;2022-07-23T05:03:28;101249.19;;;20.17;100.00
46955;BME280;32708;51.212;6.788;2022-07-23T05:05:54;101247.53;;;19.89;100.00
46955;BME280;32708;51.212;6.788;2022-07-23T05:08:20;101243.50;;;19.64;100.00
46955;BME280;32708;51.212;6.788;2022-07-23T05:10:51;101253.78;;;19.63;100.00
46955;BME280;32708;51.212;6.788;2022-07-23T05:13:19;101256.78;;;19.74;100.00
46955;BME280;32708;51.212;6.788;2022-07-23T05:15:46;101248.03;;;20.21;100.00
46955;BME280;32708;51.212;6.788;2022-07-23T05:18:12;101259.66;;;20.04;100.00
46955;BME280;32708;51.212;6.788;2022-07-23T05:20:39;101264.03;;;20.05;100.00
46955;BME280;32708;51.212;6.788;2022-07-23T05:23:07;101263.53;;;20.22;100.00
46955;BME280;32708;51.212;6.788;2022-07-23T05:25:34;101251.41;;;20.87;100.00
46955;BME280;32708;51.212;6.788;2022-07-23T05:28:00;101262.41;;;21.10;100.00
46955;BME280;32708;51.212;6.788;2022-07-23T05:30:27;101252.91;;;20.81;100.00
46955;BME280;32708;51.212;6.788;2022-07-23T05:32:58;101267.34;;;19.91;100.00
46955;BME280;32708;51.212;6.788;2022-07-23T05:35:25;101264.41;;;20.53;100.00
46955;BME280;32708;51.212;6.788;2022-07-23T05:38:06;101259.84;;;21.28;100.00
46955;BME280;32708;51.212;6.788;2022-07-23T05:40:35;101266.75;;;21.41;100.00
46955;BME280;32708;51.212;6.788;2022-07-23T05:43:01;101261.75;;;21.98;100.00
46955;BME280;32708;51.212;6.788;2022-07-23T05:45:28;101262.28;;;22.11;100.00
46955;BME280;32708;51.212;6.788;2022-07-23T05:47:54;101266.72;;;21.75;100.00
46955;BME280;32708;51.212;6.788;2022-07-23T05:50:27;101259.19;;;21.79;100.00
46955;BME280;32708;51.212;6.788;2022-07-23T05:53:00;101269.53;;;21.41;100.00
46955;BME280;32708;51.212;6.788;2022-07-23T05:55:45;101264.44;;;22.35;100.00
46955;BME280;32708;51.212;6.788;2022-07-23T05:58:11;101262.31;;;21.33;100.00
46955;BME280;32708;51.212;6.788;2022-07-23T06:00:38;101259.78;;;22.50;100.00
46955;BME280;32708;51.212;6.788;2022-07-23T06:03:05;101256.69;;;22.59;100.00
46955;BME280;32708;51.212;6.788;2022-07-23T06:05:32;101262.69;;;22.71;100.00
46955;BME280;32708;51.212;6.788;2022-07-23T06:07:58;101270.25;;;22.71;100.00
46955;BME280;32708;51.212;6.788;2022-07-23T06:10:25;101268.53;;;23.18;100.00
46955;BME280;32708;51.212;6.788;2022-07-23T06:12:51;101276.88;;;23.21;100.00
46955;BME280;32708;51.212;6.788;2022-07-23T06:15:18;101272.94;;;23.29;100.00
46955;BME280;32708;51.212;6.788;2022-07-23T06:17:44;101270.91;;;23.19;100.00
46955;BME280;32708;51.212;6.788;2022-07-23T06:20:11;101256.19;;;23.26;100.00
46955;BME280;32708;51.212;6.788;2022-07-23T06:22:39;101265.53;;;24.12;100.00
46955;BME280;32708;51.212;6.788;2022-07-23T06:25:06;101268.56;;;22.52;100.00
46955;BME280;32708;51.212;6.788;2022-07-23T06:27:33;101249.50;;;23.55;100.00
46955;BME280;32708;51.212;6.788;2022-07-23T06:29:59;101255.88;;;23.52;100.00
46955;BME280;32708;51.212;6.788;2022-07-23T06:32:25;101283.81;;;22.76;100.00
46955;BME280;32708;51.212;6.788;2022-07-23T06:34:52;101262.72;;;24.26;100.00
46955;BME280;32708;51.212;6.788;2022-07-23T06:37:20;101255.44;;;24.79;100.00
46955;BME280;32708;51.212;6.788;2022-07-23T06:39:46;101271.50;;;24.32;100.00
46955;BME280;32708;51.212;6.788;2022-07-23T06:42:16;101259.09;;;24.61;100.00
46955;BME280;32708;51.212;6.788;2022-07-23T06:44:44;101273.03;;;24.76;100.00
46955;BME280;32708;51.212;6.788;2022-07-23T06:47:10;101283.44;;;24.43;100.00
46955;BME280;32708;51.212;6.788;2022-07-23T06:49:36;101275.00;;;24.79;100.00
46955;BME280;32708;51.212;6.788;2022-07-23T06:52:03;101284.66;;;24.06;100.00
46955;BME280;32708;51.212;6.788;2022-07-23T06:54:29;101274.69;;;24.59;100.00
46955;BME280;32708;51.212;6.788;2022-07-23T06:56:55;101275.50;;;24.38;100.00
46955;BME280;32708;51.212;6.788;2022-07-23T06:59:21;101268.94;;;25.12;100.00
46955;BME280;32708;51.212;6.788;2022-07-23T07:01:47;101269.19;;;25.39;100.00
46955;BME280;32708;51.212;6.788;2022-07-23T07:04:13;101272.59;;;25.75;100.00
46955;BME280;32708;51.212;6.788;2022-07-23T07:06:39;101294.22;;;24.23;100.00
46955;BME280;32708;51.212;6.788;2022-07-23T07:09:06;101284.59;;;24.70;100.00
46955;BME280;32708;51.212;6.788;2022-07-23T07:11:32;101287.41;;;24.63;100.00
46955;BME280;32708;51.212;6.788;2022-07-23T07:13:58;101296.19;;;24.62;100.00
46955;BME280;32708;51.212;6.788;2022-07-23T07:16:24;101293.84;;;24.35;100.00
46955;BME280;32708;51.212;6.788;2022-07-23T07:18:50;101292.22;;;23.99;100.00
46955;BME280;32708;51.212;6.788;2022-07-23T07:21:16;101303.38;;;23.95;100.00
46955;BME280;32708;51.212;6.788;2022-07-23T07:23:42;101307.19;;;23.30;100.00
46955;BME280;32708;51.212;6.788;2022-07-23T07:26:08;101304.03;;;23.39;100.00
46955;BME280;32708;51.212;6.788;2022-07-23T07:28:35;101296.94;;;24.87;100.00
46955;BME280;32708;51.212;6.788;2022-07-23T07:31:01;101284.47;;;25.24;100.00
46955;BME280;32708;51.212;6.788;2022-07-23T07:33:27;101286.44;;;25.27;100.00
46955;BME280;32708;51.212;6.788;2022-07-23T07:35:54;101293.81;;;24.50;100.00
46955;BME280;32708;51.212;6.788;2022-07-23T07:38:20;101318.13;;;23.96;100.00
46955;BME280;32708;51.212;6.788;2022-07-23T07:40:47;101320.00;;;23.56;100.00
46955;BME280;32708;51.212;6.788;2022-07-23T07:43:13;101315.88;;;23.18;100.00
46955;BME280;32708;51.212;6.788;2022-07-23T07:45:39;101338.13;;;22.52;100.00
46955;BME280;32708;51.212;6.788;2022-07-23T07:48:05;101322.84;;;23.70;100.00
46955;BME280;32708;51.212;6.788;2022-07-23T07:50:32;101306.56;;;24.61;100.00
46955;BME280;32708;51.212;6.788;2022-07-23T07:52:58;101309.31;;;23.65;100.00
46955;BME280;32708;51.212;6.788;2022-07-23T07:55:24;101304.94;;;23.78;100.00
46955;BME280;32708;51.212;6.788;2022-07-23T07:57:50;101319.56;;;22.70;100.00
46955;BME280;32708;51.212;6.788;2022-07-23T08:00:19;101315.22;;;22.76;100.00
46955;BME280;32708;51.212;6.788;2022-07-23T08:02:55;101313.34;;;24.25;100.00
46955;BME280;32708;51.212;6.788;2022-07-23T08:05:26;101292.75;;;25.42;100.00
46955;BME280;32708;51.212;6.788;2022-07-23T08:07:54;101300.09;;;24.96;100.00
46955;BME280;32708;51.212;6.788;2022-07-23T08:10:21;101299.25;;;25.17;100.00
46955;BME280;32708;51.212;6.788;2022-07-23T08:12:50;101292.72;;;26.12;100.00
46955;BME280;32708;51.212;6.788;2022-07-23T08:15:22;101299.22;;;25.98;100.00
46955;BME280;32708;51.212;6.788;2022-07-23T08:17:49;101298.59;;;26.24;100.00
46955;BME280;32708;51.212;6.788;2022-07-23T08:20:19;101295.81;;;26.24;100.00
46955;BME280;32708;51.212;6.788;2022-07-23T08:22:59;101303.75;;;25.81;100.00
46955;BME280;32708;51.212;6.788;2022-07-23T08:25:32;101288.13;;;27.11;92.29
46955;BME280;32708;51.212;6.788;2022-07-23T08:28:02;101300.97;;;25.70;100.00
46955;BME280;32708;51.212;6.788;2022-07-23T08:30:33;101314.03;;;25.18;100.00
46955;BME280;32708;51.212;6.788;2022-07-23T08:33:07;101329.50;;;25.40;100.00
46955;BME280;32708;51.212;6.788;2022-07-23T08:35:37;101313.75;;;25.71;100.00
46955;BME280;32708;51.212;6.788;2022-07-23T08:38:08;101307.13;;;26.58;92.95
46955;BME280;32708;51.212;6.788;2022-07-23T08:40:42;101313.63;;;25.96;98.79
46955;BME280;32708;51.212;6.788;2022-07-23T08:43:12;101327.19;;;25.14;100.00
46955;BME280;32708;51.212;6.788;2022-07-23T08:45:44;101303.44;;;26.99;91.88
46955;BME280;32708;51.212;6.788;2022-07-23T08:48:17;101319.72;;;26.32;100.00
46955;BME280;32708;51.212;6.788;2022-07-23T08:50:48;101311.34;;;27.11;92.70
46955;BME280;32708;51.212;6.788;2022-07-23T08:53:18;101308.59;;;27.08;89.90
46955;BME280;32708;51.212;6.788;2022-07-23T08:55:47;101311.06;;;27.63;80.02
46955;BME280;32708;51.212;6.788;2022-07-23T08:58:14;101304.59;;;27.39;80.75
46955;BME280;32708;51.212;6.788;2022-07-23T09:00:41;101308.28;;;26.99;82.40
46955;BME280;32708;51.212;6.788;2022-07-23T09:03:16;101307.59;;;27.83;81.04
46955;BME280;32708;51.212;6.788;2022-07-23T09:05:42;101306.78;;;28.09;75.59
46955;BME280;32708;51.212;6.788;2022-07-23T09:13:47;101318.56;;;26.30;84.01
46955;BME280;32708;51.212;6.788;2022-07-23T09:16:16;101316.34;;;27.27;80.77
46955;BME280;32708;51.212;6.788;2022-07-23T09:19:02;101309.75;;;27.72;74.57
46955;BME280;32708;51.212;6.788;2022-07-23T09:21:38;101302.78;;;28.34;67.48
46955;BME280;32708;51.212;6.788;2022-07-23T09:24:13;101290.00;;;28.96;64.58
46955;BME280;32708;51.212;6.788;2022-07-23T09:26:45;101295.78;;;29.09;62.49
46955;BME280;32708;51.212;6.788;2022-07-23T09:29:20;101307.50;;;26.60;69.20
46955;BME280;32708;51.212;6.788;2022-07-23T09:34:24;101302.34;;;27.85;62.49
46955;BME280;32708;51.212;6.788;2022-07-23T09:36:58;101298.94;;;28.47;58.18
46955;BME280;32708;51.212;6.788;2022-07-23T09:39:34;101311.44;;;27.65;62.32
46955;BME280;32708;51.212;6.788;2022-07-23T09:42:19;101312.97;;;27.74;61.88
46955;BME280;32708;51.212;6.788;2022-07-23T09:44:49;101315.22;;;28.09;61.94
46955;BME280;32708;51.212;6.788;2022-07-23T09:47:17;101312.53;;;27.75;61.62
46955;BME280;32708;51.212;6.788;2022-07-23T09:50:08;101311.28;;;28.97;58.58
46955;BME280;32708;51.212;6.788;2022-07-23T09:52:56;101308.91;;;28.52;57.90
46955;BME280;32708;51.212;6.788;2022-07-23T09:55:35;101306.22;;;28.45;57.83
46955;BME280;32708;51.212;6.788;2022-07-23T09:58:08;101318.91;;;29.16;56.75
46955;BME280;32708;51.212;6.788;2022-07-23T10:00:41;101300.28;;;28.83;54.60
46955;BME280;32708;51.212;6.788;2022-07-23T10:03:10;101305.97;;;28.59;56.69
46955;BME280;32708;51.212;6.788;2022-07-23T10:06:01;101309.84;;;29.09;56.10
46955;BME280;32708;51.212;6.788;2022-07-23T10:08:29;101313.00;;;29.11;53.21
46955;BME280;32708;51.212;6.788;2022-07-23T10:11:36;101317.19;;;28.79;55.26
46955;BME280;32708;51.212;6.788;2022-07-23T10:14:18;101297.28;;;28.93;53.25
46955;BME280;32708;51.212;6.788;2022-07-23T10:16:54;101300.44;;;28.29;54.28
46955;BME280;32708;51.212;6.788;2022-07-23T10:19:22;101300.28;;;28.16;55.73
46955;BME280;32708;51.212;6.788;2022-07-23T10:21:55;101294.34;;;27.26;57.50
46955;BME280;32708;51.212;6.788;2022-07-23T10:27:56;101292.19;;;29.08;51.14
46955;BME280;32708;51.212;6.788;2022-07-23T10:30:54;101293.00;;;27.95;52.45
46955;BME280;32708;51.212;6.788;2022-07-23T10:34:08;101293.81;;;27.92;52.51
46955;BME280;32708;51.212;6.788;2022-07-23T10:36:59;101297.34;;;28.23;53.90
46955;BME280;32708;51.212;6.788;2022-07-23T10:39:34;101277.25;;;28.24;51.44
46955;BME280;32708;51.212;6.788;2022-07-23T10:42:13;101292.16;;;28.45;53.57
46955;BME280;32708;51.212;6.788;2022-07-23T10:44:49;101283.66;;;28.92;51.23
46955;BME280;32708;51.212;6.788;2022-07-23T10:47:28;101274.13;;;28.19;51.17
46955;BME280;32708;51.212;6.788;2022-07-23T10:50:33;101285.84;;;28.14;52.58
46955;BME280;32708;51.212;6.788;2022-07-23T10:58:03;101277.53;;;28.97;49.70
46955;BME280;32708;51.212;6.788;2022-07-23T11:00:33;101278.56;;;28.63;50.22
46955;BME280;32708;51.212;6.788;2022-07-23T11:03:03;101278.28;;;27.87;50.82
46955;BME280;32708;51.212;6.788;2022-07-23T11:05:45;101277.41;;;28.14;51.81
46955;BME280;32708;51.212;6.788;2022-07-23T11:08:17;101288.31;;;28.59;51.10
46955;BME280;32708;51.212;6.788;2022-07-23T11:13:40;101287.31;;;29.28;47.31
46955;BME280;32708;51.212;6.788;2022-07-23T11:16:24;101284.19;;;28.63;48.41
46955;BME280;32708;51.212;6.788;2022-07-23T11:18:58;101287.31;;;27.72;51.06
46955;BME280;32708;51.212;6.788;2022-07-23T11:21:41;101293.00;;;27.95;51.72
46955;BME280;32708;51.212;6.788;2022-07-23T11:24:15;101284.66;;;28.82;49.03
46955;BME280;32708;51.212;6.788;2022-07-23T11:26:53;101284.63;;;29.41;48.58
46955;BME280;32708;51.212;6.788;2022-07-23T11:37:12;101293.09;;;29.21;48.57
46955;BME280;32708;51.212;6.788;2022-07-23T11:39:39;101281.44;;;29.23;47.48
46955;BME280;32708;51.212;6.788;2022-07-23T11:42:07;101284.09;;;28.23;49.90
46955;BME280;32708;51.212;6.788;2022-07-23T11:47:04;101287.56;;;29.18;47.98
46955;BME280;32708;51.212;6.788;2022-07-23T11:49:30;101294.53;;;28.23;50.59
46955;BME280;32708;51.212;6.788;2022-07-23T11:52:09;101285.44;;;29.22;48.00
46955;BME280;32708;51.212;6.788;2022-07-23T11:57:16;101277.84;;;28.79;48.32
46955;BME280;32708;51.212;6.788;2022-07-23T11:59:46;101276.25;;;29.01;47.82
46955;BME280;32708;51.212;6.788;2022-07-23T12:02:13;101267.72;;;29.25;46.62
46955;BME280;32708;51.212;6.788;2022-07-23T12:04:48;101273.00;;;29.03;45.13
46955;BME280;32708;51.212;6.788;2022-07-23T12:07:39;101268.22;;;28.80;45.03
46955;BME280;32708;51.212;6.788;2022-07-23T12:10:16;101265.56;;;29.49;43.15
46955;BME280;32708;51.212;6.788;2022-07-23T12:12:49;101271.84;;;29.56;42.23
46955;BME280;32708;51.212;6.788;2022-07-23T12:15:29;101264.31;;;29.33;42.69
46955;BME280;32708;51.212;6.788;2022-07-23T12:17:59;101262.72;;;29.32;41.83
46955;BME280;32708;51.212;6.788;2022-07-23T12:20:29;101267.56;;;29.12;42.14
46955;BME280;32708;51.212;6.788;2022-07-23T12:23:00;101261.25;;;29.80;41.67
46955;BME280;32708;51.212;6.788;2022-07-23T12:25:31;101266.78;;;29.68;43.19
46955;BME280;32708;51.212;6.788;2022-07-23T12:28:32;101271.69;;;28.21;46.55
46955;BME280;32708;51.212;6.788;2022-07-23T12:31:00;101257.44;;;29.34;43.43
46955;BME280;32708;51.212;6.788;2022-07-23T12:33:35;101275.00;;;29.22;43.99
46955;BME280;32708;51.212;6.788;2022-07-23T12:36:05;101280.41;;;29.49;45.26
46955;BME280;32708;51.212;6.788;2022-07-23T12:38:46;101276.59;;;29.23;42.97
46955;BME280;32708;51.212;6.788;2022-07-23T12:41:13;101278.75;;;27.25;48.22
46955;BME280;32708;51.212;6.788;2022-07-23T12:43:43;101286.22;;;28.83;45.14
46955;BME280;32708;51.212;6.788;2022-07-23T12:46:21;101264.84;;;29.81;42.32
46955;BME280;32708;51.212;6.788;2022-07-23T12:53:46;101267.13;;;29.86;44.07
46955;BME280;32708;51.212;6.788;2022-07-23T12:56:20;101272.66;;;29.01;44.67
46955;BME280;32708;51.212;6.788;2022-07-23T13:01:25;101272.13;;;29.78;43.95
46955;BME280;32708;51.212;6.788;2022-07-23T13:06:52;101280.44;;;30.18;43.84
46955;BME280;32708;51.212;6.788;2022-07-23T13:09:22;101273.88;;;29.56;43.53
46955;BME280;32708;51.212;6.788;2022-07-23T13:11:51;101274.91;;;29.26;43.25
46955;BME280;32708;51.212;6.788;2022-07-23T13:14:20;101289.53;;;29.01;44.66
46955;BME280;32708;51.212;6.788;2022-07-23T13:16:49;101291.31;;;29.11;42.90
46955;BME280;32708;51.212;6.788;2022-07-23T13:19:16;101277.59;;;30.02;40.99
46955;BME280;32708;51.212;6.788;2022-07-23T13:21:43;101279.09;;;29.90;42.24
46955;BME280;32708;51.212;6.788;2022-07-23T13:24:12;101285.69;;;29.11;44.09
46955;BME280;32708;51.212;6.788;2022-07-23T13:26:39;101285.16;;;29.88;43.86
46955;BME280;32708;51.212;6.788;2022-07-23T13:29:06;101270.91;;;30.28;42.79
46955;BME280;32708;51.212;6.788;2022-07-23T13:31:33;101273.13;;;29.16;43.46
46955;BME280;32708;51.212;6.788;2022-07-23T13:33:59;101270.06;;;29.46;44.42
46955;BME280;32708;51.212;6.788;2022-07-23T13:36:25;101266.16;;;29.60;43.23
46955;BME280;32708;51.212;6.788;2022-07-23T13:38:52;101263.59;;;29.82;43.53